Time;durP1;ratioP1;P1;durP2;ratioP2;P2;SDS_P1;SDS_P2;PMS_P1;PMS_P2;Temp;Humidity;BMP_temperature;BMP_pressure;BME280_temperature;BME280_humidity;BME280_pressure;Samples;Min_cycle;Max_cycle;Signal;HPM_P1;HPM_P2
2022/10/31 00:01:23;;;;;;;12.70;6.10;;;10.00;99.90;;;;;;4989378;28;20774;-63
2022/10/31 00:03:49;;;;;;;15.25;5.65;;;10.00;99.90;;;;;;4985635;28;20033;-65
2022/10/31 00:06:17;;;;;;;21.15;6.55;;;10.00;99.90;;;;;;4987228;28;20034;-68
2022/10/31 00:08:44;;;;;;;14.32;6.30;;;9.90;99.90;;;;;;4970087;28;20034;-70
2022/10/31 00:11:10;;;;;;;15.13;6.25;;;9.80;99.90;;;;;;4980096;28;20026;-66
2022/10/31 00:13:36;;;;;;;18.08;6.15;;;9.80;99.90;;;;;;4988564;28;20477;-62
2022/10/31 00:16:02;;;;;;;19.65;6.50;;;9.80;99.90;;;;;;4986833;28;20023;-66
2022/10/31 00:18:27;;;;;;;18.08;6.35;;;9.80;99.90;;;;;;4988552;28;20530;-65
2022/10/31 00:21:03;;;;;;;17.63;6.57;;;9.80;99.90;;;;;;4986395;28;20046;-64
2022/10/31 00:23:29;;;;;;;16.15;6.00;;;9.90;99.90;;;;;;4970449;28;20045;-65
2022/10/31 00:26:03;;;;;;;13.07;5.93;;;9.90;99.90;;;;;;4980580;28;20089;-63
2022/10/31 00:28:30;;;;;;;18.70;6.63;;;9.90;99.90;;;;;;4988651;28;20471;-66
2022/10/31 00:31:06;;;;;;;17.77;5.85;;;9.90;99.90;;;;;;4987944;28;20483;-65
2022/10/31 00:33:33;;;;;;;14.70;5.65;;;9.80;99.90;;;;;;4987809;28;20034;-63
2022/10/31 00:35:59;;;;;;;10.52;4.97;;;9.70;99.90;;;;;;4987235;28;20165;-63
2022/10/31 00:38:25;;;;;;;12.90;5.93;;;9.70;99.90;;;;;;4988537;28;20117;-64
2022/10/31 00:40:50;;;;;;;15.35;5.57;;;9.60;99.90;;;;;;5000558;28;20497;-68
2022/10/31 00:43:16;;;;;;;13.88;6.32;;;9.60;99.90;;;;;;4989106;28;20472;-63
2022/10/31 00:45:43;;;;;;;14.13;6.13;;;9.70;99.90;;;;;;4987953;28;20081;-70
2022/10/31 00:48:09;;;;;;;11.82;5.88;;;9.80;99.90;;;;;;4989319;28;20042;-64
2022/10/31 00:50:35;;;;;;;11.48;6.60;;;9.60;99.90;;;;;;4987989;28;20207;-64
2022/10/31 00:53:00;;;;;;;18.75;5.93;;;9.50;99.90;;;;;;4979570;28;20054;-65
2022/10/31 00:55:26;;;;;;;11.63;6.30;;;9.40;99.90;;;;;;4987459;28;20032;-64
2022/10/31 00:57:51;;;;;;;14.13;6.13;;;9.30;99.90;;;;;;4989396;28;20034;-67
2022/10/31 01:00:17;;;;;;;14.07;6.18;;;9.40;99.90;;;;;;4989386;28;20483;-66
2022/10/31 01:02:43;;;;;;;12.90;5.97;;;9.50;99.90;;;;;;4987266;28;20038;-70
2022/10/31 01:05:09;;;;;;;17.63;6.57;;;9.40;99.90;;;;;;4986996;28;20030;-65
2022/10/31 01:07:39;;;;;;;19.33;6.30;;;9.40;99.90;;;;;;4987606;28;20030;-64
2022/10/31 01:10:05;;;;;;;16.35;6.38;;;9.40;99.90;;;;;;4986128;28;20026;-64
2022/10/31 01:12:36;;;;;;;20.40;5.85;;;9.30;99.90;;;;;;4994276;28;20061;-64
2022/10/31 01:15:03;;;;;;;23.50;7.03;;;9.30;99.90;;;;;;4988879;28;20030;-65
2022/10/31 01:17:29;;;;;;;10.45;6.10;;;9.30;99.90;;;;;;4989284;28;20525;-64
2022/10/31 01:19:54;;;;;;;14.27;6.18;;;9.30;99.90;;;;;;4987995;28;20037;-64
2022/10/31 01:22:20;;;;;;;11.23;5.95;;;9.30;99.90;;;;;;4987352;28;20101;-66
2022/10/31 01:24:46;;;;;;;12.40;5.45;;;9.30;99.90;;;;;;4987565;28;20029;-71
2022/10/31 01:27:11;;;;;;;14.68;6.07;;;9.20;99.90;;;;;;4988815;28;20471;-64
2022/10/31 01:29:37;;;;;;;15.57;6.07;;;9.20;99.90;;;;;;4983178;28;20106;-65
2022/10/31 01:32:03;;;;;;;12.13;5.90;;;9.10;99.90;;;;;;4982326;28;20030;-64
2022/10/31 01:34:28;;;;;;;12.57;5.63;;;9.00;99.90;;;;;;4987897;28;20057;-63
2022/10/31 01:36:54;;;;;;;11.73;5.40;;;9.00;99.90;;;;;;4988336;28;20513;-63
2022/10/31 01:39:20;;;;;;;14.82;5.90;;;9.00;99.90;;;;;;4986083;28;20627;-64
2022/10/31 01:41:51;;;;;;;14.20;5.90;;;9.00;99.90;;;;;;4988536;28;20048;-70
2022/10/31 01:44:17;;;;;;;17.35;5.78;;;9.00;99.90;;;;;;4986689;28;20361;-64
2022/10/31 01:46:53;;;;;;;13.75;5.70;;;9.00;99.90;;;;;;4999770;28;20050;-63
2022/10/31 01:49:22;;;;;;;11.65;6.00;;;9.00;99.90;;;;;;4990703;28;20053;-66
2022/10/31 01:51:58;;;;;;;17.40;6.70;;;9.00;99.90;;;;;;4988409;28;20038;-70
2022/10/31 01:54:28;;;;;;;14.73;6.32;;;9.00;99.90;;;;;;4987950;28;20046;-65
2022/10/31 01:56:57;;;;;;;11.63;5.97;;;9.00;99.90;;;;;;4987722;28;20041;-64
2022/10/31 01:59:29;;;;;;;17.55;5.72;;;9.00;99.90;;;;;;4988152;28;20037;-62
2022/10/31 02:01:55;;;;;;;19.75;6.60;;;9.00;99.90;;;;;;4990339;28;20072;-63
2022/10/31 02:04:23;;;;;;;13.55;5.30;;;9.00;99.90;;;;;;4993177;28;20080;-66
2022/10/31 02:07:14;;;;;;;14.77;5.53;;;8.90;99.90;;;;;;4992144;28;20499;-70
2022/10/31 02:09:42;;;;;;;19.70;6.78;;;8.90;99.90;;;;;;4989262;28;20403;-66
2022/10/31 02:12:10;;;;;;;10.40;5.07;;;8.90;99.90;;;;;;4991656;28;20169;-65
2022/10/31 02:14:37;;;;;;;11.50;5.53;;;8.90;99.90;;;;;;4990106;28;20113;-64
2022/10/31 02:17:03;;;;;;;17.27;5.72;;;8.90;99.90;;;;;;4989561;28;20035;-64
2022/10/31 02:20:06;;;;;;;18.55;5.50;;;8.90;99.90;;;;;;4989137;28;20803;-61
2022/10/31 02:23:13;;;;;;;16.40;5.88;;;8.90;99.90;;;;;;4989437;28;20698;-64
2022/10/31 02:25:57;;;;;;;13.55;5.38;;;8.80;99.90;;;;;;4990928;28;20442;-62
2022/10/31 02:28:53;;;;;;;15.32;5.55;;;8.80;99.90;;;;;;4991399;28;20040;-64
2022/10/31 02:31:35;;;;;;;13.45;5.78;;;8.80;99.90;;;;;;4989128;28;20030;-67
2022/10/31 02:34:17;;;;;;;13.50;5.22;;;8.70;99.90;;;;;;4991308;28;20421;-65
2022/10/31 02:36:47;;;;;;;12.23;5.72;;;8.70;99.90;;;;;;4982312;28;20096;-64
2022/10/31 02:39:23;;;;;;;16.67;5.50;;;8.60;99.90;;;;;;4997520;28;20836;-62
2022/10/31 02:42:12;;;;;;;11.68;5.65;;;8.60;99.90;;;;;;4989843;28;20064;-71
2022/10/31 02:45:03;;;;;;;13.73;6.47;;;8.60;99.90;;;;;;4989177;28;20053;-63
2022/10/31 02:47:33;;;;;;;9.77;4.35;;;8.70;99.90;;;;;;4988032;28;20077;-64
2022/10/31 02:50:00;;;;;;;;;;;8.70;99.90;;;;;;4980666;28;20364;-64
2022/10/31 02:52:29;;;;;;;18.02;5.88;;;8.70;99.90;;;;;;4989517;28;19917;-65
2022/10/31 02:54:55;;;;;;;13.95;5.80;;;8.70;99.90;;;;;;5000895;28;20160;-64
2022/10/31 02:57:28;;;;;;;11.35;5.72;;;8.70;99.90;;;;;;4989368;28;20483;-65
2022/10/31 03:00:00;;;;;;;11.80;5.70;;;8.70;99.90;;;;;;4989810;28;20045;-70
2022/10/31 03:02:43;;;;;;;12.18;5.40;;;8.70;99.90;;;;;;4990801;28;20046;-66
2022/10/31 03:05:33;;;;;;;13.80;5.80;;;8.70;99.90;;;;;;5001886;28;20072;-67
2022/10/31 03:07:58;;;;;;;15.68;6.07;;;8.70;99.90;;;;;;5000805;28;20446;-63
2022/10/31 03:10:45;;;;;;;13.13;6.00;;;8.70;99.90;;;;;;4990393;28;20066;-64
2022/10/31 03:13:40;;;;;;;15.40;5.93;;;8.70;99.90;;;;;;4980945;28;20034;-64
2022/10/31 03:16:14;;;;;;;15.95;5.45;;;8.70;99.90;;;;;;4992169;28;20112;-63
2022/10/31 03:19:09;;;;;;;12.10;5.38;;;8.60;99.90;;;;;;4998918;28;20033;-67
2022/10/31 03:21:53;;;;;;;14.48;5.80;;;8.60;99.90;;;;;;4990089;28;20089;-64
2022/10/31 03:24:21;;;;;;;14.13;5.18;;;8.50;99.90;;;;;;4987687;28;20089;-62
2022/10/31 03:26:52;;;;;;;12.57;5.70;;;8.40;99.90;;;;;;4971443;28;20030;-64
2022/10/31 03:29:22;;;;;;;17.63;6.40;;;8.40;99.90;;;;;;4986308;28;20456;-64
2022/10/31 03:32:09;;;;;;;11.48;5.43;;;8.40;99.90;;;;;;5002272;28;20076;-65
2022/10/31 03:34:37;;;;;;;13.43;5.78;;;8.40;99.90;;;;;;4990369;28;20034;-64
2022/10/31 03:37:06;;;;;;;11.30;5.05;;;8.30;99.90;;;;;;4989460;28;20130;-63
2022/10/31 03:39:33;;;;;;;12.07;5.20;;;8.30;99.90;;;;;;4988931;28;20038;-65
2022/10/31 03:42:20;;;;;;;12.70;5.22;;;8.30;99.90;;;;;;4989149;28;20038;-63
2022/10/31 03:45:18;;;;;;;15.52;6.00;;;8.30;99.90;;;;;;4990208;28;20042;-65
2022/10/31 03:47:44;;;;;;;13.30;5.05;;;8.20;99.90;;;;;;4994194;28;20053;-66
2022/10/31 03:50:12;;;;;;;16.55;4.80;;;8.20;99.90;;;;;;4988980;28;20632;-65
2022/10/31 03:53:00;;;;;;;12.45;5.13;;;8.20;99.90;;;;;;4975943;28;20432;-64
2022/10/31 03:55:28;;;;;;;10.95;5.45;;;8.10;99.90;;;;;;4979661;28;20042;-64
2022/10/31 03:57:56;;;;;;;14.00;5.47;;;8.10;99.90;;;;;;4988434;28;20034;-68
2022/10/31 04:00:23;;;;;;;11.95;5.35;;;8.10;99.90;;;;;;4986968;28;20264;-64
2022/10/31 04:03:07;;;;;;;11.82;4.65;;;8.20;99.90;;;;;;5010015;28;20040;-64
2022/10/31 04:05:34;;;;;;;11.07;5.75;;;8.20;99.90;;;;;;5000551;28;20034;-63
2022/10/31 04:08:04;;;;;;;14.32;5.72;;;8.10;99.90;;;;;;4988968;28;20502;-65
2022/10/31 04:10:31;;;;;;;12.23;5.82;;;8.10;99.90;;;;;;4987614;28;20034;-65
2022/10/31 04:13:02;;;;;;;14.35;6.38;;;8.10;99.90;;;;;;4983637;28;20399;-68
2022/10/31 04:15:29;;;;;;;16.42;6.00;;;8.10;99.90;;;;;;4987970;28;20416;-66
2022/10/31 04:17:58;;;;;;;13.25;5.30;;;8.10;99.90;;;;;;4989761;28;20097;-69
2022/10/31 04:20:39;;;;;;;12.57;5.00;;;8.10;99.90;;;;;;4988616;28;20040;-64
2022/10/31 04:23:22;;;;;;;13.82;5.03;;;8.20;99.90;;;;;;4988624;28;20073;-66
2022/10/31 04:25:47;;;;;;;12.75;5.10;;;8.10;99.90;;;;;;4987456;28;20037;-66
2022/10/31 04:28:13;;;;;;;10.95;5.57;;;8.00;99.90;;;;;;4988336;28;20526;-64
2022/10/31 04:30:39;;;;;;;14.88;5.45;;;8.00;99.90;;;;;;4988958;28;20030;-64
2022/10/31 04:33:04;;;;;;;14.93;5.75;;;8.00;99.90;;;;;;4987018;28;20030;-64
2022/10/31 04:35:30;;;;;;;12.07;4.90;;;7.90;99.90;;;;;;4988622;28;20030;-66
2022/10/31 04:37:55;;;;;;;12.23;4.57;;;7.90;99.90;;;;;;4989321;28;20101;-70
2022/10/31 04:40:21;;;;;;;11.20;5.20;;;7.80;99.90;;;;;;4987628;28;20105;-64
2022/10/31 04:42:47;;;;;;;11.13;4.72;;;7.80;99.90;;;;;;4988201;28;20132;-65
2022/10/31 04:45:12;;;;;;;8.15;4.38;;;7.80;99.90;;;;;;4989192;28;20058;-66
2022/10/31 04:47:38;;;;;;;13.05;5.18;;;7.80;99.90;;;;;;4989786;28;20049;-64
2022/10/31 04:50:04;;;;;;;15.48;5.45;;;7.80;99.90;;;;;;4986930;28;20030;-68
2022/10/31 04:52:29;;;;;;;9.95;4.68;;;7.90;99.90;;;;;;4988217;28;20038;-68
2022/10/31 04:54:55;;;;;;;15.60;5.85;;;7.80;99.90;;;;;;4988500;28;20054;-65
2022/10/31 04:57:21;;;;;;;13.07;5.10;;;7.70;99.90;;;;;;4988865;28;20034;-67
2022/10/31 04:59:46;;;;;;;12.80;4.93;;;7.70;99.90;;;;;;4991182;28;20469;-64
2022/10/31 05:02:12;;;;;;;15.88;4.88;;;7.70;99.90;;;;;;5008233;28;20046;-65
2022/10/31 05:04:37;;;;;;;12.57;5.07;;;7.70;99.90;;;;;;4998684;28;20042;-65
2022/10/31 05:07:03;;;;;;;12.98;5.18;;;7.70;99.90;;;;;;4988641;28;20034;-62
2022/10/31 05:09:29;;;;;;;11.02;4.88;;;7.60;99.90;;;;;;4985008;28;20034;-64
2022/10/31 05:11:54;;;;;;;15.48;5.03;;;7.60;99.90;;;;;;4989050;28;20038;-65
2022/10/31 05:14:20;;;;;;;17.20;5.78;;;7.60;99.90;;;;;;4987392;28;20093;-65
2022/10/31 05:16:45;;;;;;;10.13;5.50;;;7.60;99.90;;;;;;4988128;28;20030;-64
2022/10/31 05:19:11;;;;;;;13.57;5.40;;;7.60;99.90;;;;;;4987682;28;20066;-63
2022/10/31 05:21:37;;;;;;;11.02;5.30;;;7.70;99.90;;;;;;4984121;28;20038;-63
2022/10/31 05:24:02;;;;;;;11.68;5.45;;;7.70;99.90;;;;;;4984568;28;20023;-70
2022/10/31 05:26:28;;;;;;;13.55;5.30;;;7.60;99.90;;;;;;4982986;28;20026;-64
2022/10/31 05:28:54;;;;;;;10.07;5.35;;;7.50;99.90;;;;;;4983246;28;20030;-64
2022/10/31 05:31:19;;;;;;;10.77;5.38;;;7.50;99.90;;;;;;4986589;28;20101;-64
2022/10/31 05:33:45;;;;;;;16.50;6.40;;;7.50;99.90;;;;;;4984994;28;20068;-65
2022/10/31 05:36:11;;;;;;;15.30;6.70;;;7.50;99.90;;;;;;4990260;28;20049;-67
2022/10/31 05:38:36;;;;;;;18.00;7.28;;;7.60;99.90;;;;;;4991190;28;20034;-62
2022/10/31 05:41:02;;;;;;;14.48;6.72;;;7.60;99.90;;;;;;4992228;28;20046;-68
2022/10/31 05:43:28;;;;;;;17.80;7.82;;;7.50;99.90;;;;;;4991647;28;20041;-65
2022/10/31 05:45:55;;;;;;;12.55;6.80;;;7.50;99.90;;;;;;4991735;28;20057;-65
2022/10/31 05:48:21;;;;;;;13.88;6.47;;;7.50;99.90;;;;;;4992489;28;20036;-68
2022/10/31 05:50:48;;;;;;;15.45;6.90;;;7.50;99.90;;;;;;4991759;28;20038;-65
2022/10/31 05:53:15;;;;;;;18.38;9.32;;;7.50;99.90;;;;;;4992065;28;20467;-65
2022/10/31 05:55:41;;;;;;;19.65;8.75;;;7.50;99.90;;;;;;4991354;28;20038;-65
2022/10/31 05:58:07;;;;;;;22.85;9.90;;;7.40;99.90;;;;;;4990898;28;20036;-66
2022/10/31 06:00:34;;;;;;;22.63;12.27;;;7.50;99.90;;;;;;4995184;28;20030;-63
2022/10/31 06:03:02;;;;;;;25.33;11.80;;;7.40;99.90;;;;;;4990487;28;20034;-67
2022/10/31 06:05:29;;;;;;;16.45;7.60;;;7.40;99.90;;;;;;4996775;28;20022;-64
2022/10/31 06:07:55;;;;;;;13.63;6.75;;;7.40;99.90;;;;;;4987280;28;20039;-64
2022/10/31 06:10:21;;;;;;;18.08;7.70;;;7.40;99.90;;;;;;4985024;28;20528;-64
2022/10/31 06:12:48;;;;;;;20.70;7.35;;;7.30;99.90;;;;;;4992072;28;20026;-65
2022/10/31 06:15:13;;;;;;;13.68;6.38;;;7.40;99.90;;;;;;4990415;28;20432;-62
2022/10/31 06:17:39;;;;;;;16.02;6.20;;;7.30;99.90;;;;;;4992747;28;20073;-64
2022/10/31 06:20:06;;;;;;;15.15;6.95;;;7.30;99.90;;;;;;4988630;28;20038;-70
2022/10/31 06:22:31;;;;;;;19.02;7.55;;;7.20;99.90;;;;;;4987459;28;20164;-63
2022/10/31 06:24:57;;;;;;;21.00;8.45;;;7.20;99.90;;;;;;4985687;28;20451;-66
2022/10/31 06:27:23;;;;;;;19.60;7.75;;;7.20;99.90;;;;;;4986083;28;20029;-65
2022/10/31 06:29:49;;;;;;;16.17;7.22;;;7.20;99.90;;;;;;4992137;28;20105;-65
2022/10/31 06:32:15;;;;;;;13.38;5.68;;;7.30;99.90;;;;;;4987559;28;20058;-64
2022/10/31 06:34:41;;;;;;;14.57;6.53;;;7.30;99.90;;;;;;4990475;28;20720;-70
2022/10/31 06:37:08;;;;;;;14.15;6.38;;;7.40;99.90;;;;;;4989493;28;20036;-68
2022/10/31 06:39:34;;;;;;;15.48;5.85;;;7.40;99.90;;;;;;4990353;28;20521;-64
2022/10/31 06:41:59;;;;;;;18.88;6.10;;;7.50;99.90;;;;;;4990867;28;20042;-64
2022/10/31 06:44:25;;;;;;;17.08;6.43;;;7.50;99.90;;;;;;4996381;28;20053;-64
2022/10/31 06:46:51;;;;;;;19.77;6.10;;;7.70;99.90;;;;;;4988648;28;20093;-67
2022/10/31 06:49:16;;;;;;;15.98;6.80;;;7.70;99.90;;;;;;4985460;28;20092;-64
2022/10/31 06:51:42;;;;;;;14.48;6.38;;;7.70;99.90;;;;;;4983159;28;20089;-65
2022/10/31 06:54:08;;;;;;;16.05;6.35;;;7.70;99.90;;;;;;4983068;28;20428;-69
2022/10/31 06:56:34;;;;;;;12.05;5.68;;;7.70;99.90;;;;;;4986529;28;20431;-65
2022/10/31 06:59:00;;;;;;;14.38;5.57;;;7.70;99.90;;;;;;4987406;28;20050;-64
2022/10/31 07:01:26;;;;;;;10.10;5.45;;;7.70;99.90;;;;;;4986034;28;20347;-68
2022/10/31 07:03:51;;;;;;;11.90;5.28;;;7.80;99.90;;;;;;4984853;28;20033;-64
2022/10/31 07:06:17;;;;;;;14.15;6.32;;;7.80;99.90;;;;;;4969068;28;20038;-66
2022/10/31 07:08:42;;;;;;;13.93;6.13;;;7.80;99.90;;;;;;5004451;28;20034;-64
2022/10/31 07:11:08;;;;;;;12.07;5.88;;;7.80;99.90;;;;;;4991600;28;20061;-70
2022/10/31 07:13:33;;;;;;;14.07;5.78;;;8.00;99.90;;;;;;4990407;28;20034;-64
2022/10/31 07:16:02;;;;;;;11.70;6.25;;;8.00;99.90;;;;;;4987977;28;20042;-65
2022/10/31 07:18:28;;;;;;;14.82;6.22;;;8.00;99.90;;;;;;4987995;28;20026;-65
2022/10/31 07:20:53;;;;;;;11.95;5.93;;;7.90;99.90;;;;;;4985577;28;20029;-64
2022/10/31 07:23:19;;;;;;;15.07;6.28;;;7.90;99.90;;;;;;4988955;28;20023;-66
2022/10/31 07:25:45;;;;;;;19.52;6.60;;;8.00;99.90;;;;;;4998215;28;20635;-62
2022/10/31 07:28:11;;;;;;;17.30;6.03;;;8.00;99.90;;;;;;4989515;28;20098;-63
2022/10/31 07:30:37;;;;;;;13.60;6.05;;;8.10;99.90;;;;;;4988596;28;20026;-62
2022/10/31 07:33:04;;;;;;;12.30;6.05;;;8.30;99.90;;;;;;4988056;28;20022;-64
2022/10/31 07:35:30;;;;;;;15.07;6.25;;;8.30;99.90;;;;;;4987961;28;20513;-62
2022/10/31 07:37:57;;;;;;;14.98;6.18;;;8.50;99.90;;;;;;4988857;28;20030;-62
2022/10/31 07:40:23;;;;;;;24.75;6.47;;;8.70;99.90;;;;;;4985825;28;20981;-66
2022/10/31 07:42:51;;;;;;;13.93;6.25;;;8.70;99.90;;;;;;4990019;28;20073;-67
2022/10/31 07:45:20;;;;;;;13.70;5.70;;;8.80;99.90;;;;;;4948490;28;1153105;-65
2022/10/31 07:47:48;;;;;;;14.65;6.22;;;8.90;99.90;;;;;;4990821;28;20166;-64
2022/10/31 07:50:18;;;;;;;16.60;6.07;;;8.90;99.90;;;;;;4987697;28;20849;-64
2022/10/31 07:52:44;;;;;;;17.30;5.53;;;9.00;99.90;;;;;;4988881;28;20034;-64
2022/10/31 07:55:10;;;;;;;13.85;6.25;;;9.00;99.90;;;;;;4986119;28;20074;-68
2022/10/31 07:57:39;;;;;;;18.00;6.10;;;9.10;99.90;;;;;;4987220;28;20061;-67
2022/10/31 08:00:09;;;;;;;10.57;5.70;;;9.20;99.90;;;;;;4985703;28;20034;-64
2022/10/31 08:02:35;;;;;;;12.68;5.95;;;9.40;99.90;;;;;;4984384;28;20543;-63
2022/10/31 08:05:03;;;;;;;18.17;6.15;;;9.60;99.90;;;;;;4980402;28;20161;-67
2022/10/31 08:07:29;;;;;;;29.33;5.97;;;9.70;99.90;;;;;;4989052;28;20761;-64
2022/10/31 08:09:55;;;;;;;14.30;6.47;;;9.90;99.90;;;;;;4983582;28;20114;-64
2022/10/31 08:12:21;;;;;;;18.70;6.38;;;10.10;99.90;;;;;;4985505;28;20085;-64
2022/10/31 08:14:47;;;;;;;16.15;6.30;;;10.30;99.90;;;;;;4989562;28;20525;-65
2022/10/31 08:17:13;;;;;;;12.02;6.25;;;10.40;99.90;;;;;;4986405;28;20034;-72
2022/10/31 08:19:39;;;;;;;19.80;7.25;;;10.50;99.90;;;;;;4988113;28;20046;-67
2022/10/31 08:22:04;;;;;;;21.52;7.03;;;10.60;99.90;;;;;;4979533;28;20034;-68
2022/10/31 08:24:30;;;;;;;16.20;7.47;;;10.70;99.90;;;;;;4989325;28;20290;-68
2022/10/31 08:26:55;;;;;;;16.77;6.93;;;10.80;99.90;;;;;;4988876;28;20030;-69
2022/10/31 08:29:21;;;;;;;14.15;6.55;;;10.90;99.90;;;;;;4977428;28;20109;-69
2022/10/31 08:31:47;;;;;;;26.23;9.18;;;11.00;99.90;;;;;;4989907;28;20185;-67
2022/10/31 08:34:12;;;;;;;23.77;9.30;;;11.10;99.90;;;;;;4985855;28;20050;-76
2022/10/31 08:36:38;;;;;;;23.20;9.40;;;11.30;99.90;;;;;;4987358;28;20056;-68
2022/10/31 08:39:03;;;;;;;22.85;8.55;;;11.50;99.90;;;;;;4986827;28;20058;-67
2022/10/31 08:41:29;;;;;;;24.02;8.35;;;11.60;99.90;;;;;;4984603;28;20046;-70
2022/10/31 08:43:55;;;;;;;21.88;8.05;;;11.70;99.90;;;;;;4986317;28;20042;-67
2022/10/31 08:46:21;;;;;;;16.30;7.47;;;11.70;99.90;;;;;;4987947;28;20193;-67
2022/10/31 08:48:50;;;;;;;18.15;8.45;;;11.70;99.90;;;;;;4986714;28;20030;-67
2022/10/31 08:51:15;;;;;;;19.50;8.27;;;11.80;99.90;;;;;;4985367;28;20105;-72
2022/10/31 08:53:41;;;;;;;13.73;7.32;;;11.90;99.90;;;;;;4987650;28;20101;-71
2022/10/31 08:56:07;;;;;;;14.32;7.40;;;12.00;99.90;;;;;;4985327;28;20034;-67
2022/10/31 08:58:32;;;;;;;15.00;7.63;;;12.20;99.90;;;;;;4987287;28;20027;-73
2022/10/31 09:01:00;;;;;;;22.13;7.72;;;12.30;99.90;;;;;;4987866;28;20045;-70
2022/10/31 09:03:28;;;;;;;16.10;7.57;;;12.50;99.90;;;;;;4974114;28;20046;-70
2022/10/31 09:06:00;;;;;;;14.02;6.50;;;12.70;99.90;;;;;;4970462;28;20092;-71
2022/10/31 09:08:26;;;;;;;13.55;7.05;;;12.80;99.90;;;;;;4991017;28;20034;-71
2022/10/31 09:10:52;;;;;;;14.10;6.70;;;12.90;99.90;;;;;;4998118;28;20105;-71
2022/10/31 09:13:20;;;;;;;18.63;6.55;;;13.00;99.90;;;;;;4986293;28;20133;-71
2022/10/31 09:15:48;;;;;;;15.13;6.43;;;12.90;99.90;;;;;;4989340;28;20476;-71
2022/10/31 09:18:15;;;;;;;12.65;6.47;;;13.10;99.90;;;;;;4988975;28;20049;-70
2022/10/31 09:20:43;;;;;;;12.30;6.57;;;13.10;99.90;;;;;;4987127;28;20033;-69
2022/10/31 09:23:16;;;;;;;13.82;6.55;;;13.30;99.90;;;;;;4988482;28;20034;-71
2022/10/31 09:25:43;;;;;;;16.00;7.05;;;13.50;99.90;;;;;;4987326;28;20034;-70
2022/10/31 09:28:14;;;;;;;27.13;8.25;;;13.70;99.90;;;;;;4986622;28;20488;-70
2022/10/31 09:30:39;;;;;;;19.45;7.05;;;13.80;99.90;;;;;;4988815;28;20031;-70
2022/10/31 09:33:09;;;;;;;17.20;6.63;;;14.00;99.90;;;;;;4986530;28;20053;-71
2022/10/31 09:35:35;;;;;;;21.25;7.13;;;14.20;99.90;;;;;;4988225;28;20606;-70
2022/10/31 09:38:14;;;;;;;16.83;6.28;;;14.40;99.90;;;;;;4987974;28;20041;-72
2022/10/31 09:40:44;;;;;;;15.80;6.55;;;14.60;99.90;;;;;;4987327;28;20038;-71
2022/10/31 09:43:27;;;;;;;13.27;6.72;;;14.70;99.90;;;;;;4999431;28;20057;-72
2022/10/31 09:46:15;;;;;;;20.52;6.85;;;14.90;99.90;;;;;;4991332;28;20086;-71
2022/10/31 09:49:15;;;;;;;14.48;7.05;;;15.00;99.90;;;;;;4989027;28;20038;-70
2022/10/31 09:51:45;;;;;;;18.83;7.38;;;15.30;99.90;;;;;;4973797;28;20155;-70
2022/10/31 09:54:18;;;;;;;16.73;7.28;;;15.50;99.90;;;;;;5018733;28;20070;-72
2022/10/31 09:56:44;;;;;;;17.75;7.68;;;15.70;99.90;;;;;;4987380;28;20030;-71
2022/10/31 09:59:31;;;;;;;16.55;7.28;;;15.90;99.90;;;;;;4988863;28;20030;-71
2022/10/31 10:02:04;;;;;;;23.65;8.57;;;16.20;99.90;;;;;;4987838;28;20542;-70
2022/10/31 10:04:46;;;;;;;22.58;8.10;;;16.40;99.90;;;;;;4987259;28;20046;-71
2022/10/31 10:07:32;;;;;;;22.05;7.57;;;16.70;99.90;;;;;;4988728;28;20801;-71
2022/10/31 10:10:00;;;;;;;15.02;6.70;;;17.00;99.90;;;;;;4970606;28;20059;-71
2022/10/31 10:12:50;;;;;;;16.05;6.85;;;17.20;99.90;;;;;;4985673;28;20038;-68
2022/10/31 10:15:41;;;;;;;18.27;7.28;;;17.40;99.90;;;;;;4987390;28;20101;-71
2022/10/31 10:18:10;;;;;;;24.05;7.63;;;17.60;99.90;;;;;;4988851;28;20026;-70
2022/10/31 10:20:52;;;;;;;16.88;6.80;;;17.70;99.90;;;;;;4985939;28;20425;-69
2022/10/31 10:23:18;;;;;;;22.30;7.05;;;17.80;99.90;;;;;;4989500;28;20121;-70
2022/10/31 10:25:47;;;;;;;23.27;6.75;;;17.90;99.90;;;;;;4989428;28;20534;-69
2022/10/31 10:28:25;;;;;;;16.95;7.45;;;18.00;99.90;;;;;;4990989;28;20045;-70
2022/10/31 10:31:07;;;;;;;21.08;6.57;;;18.10;99.90;;;;;;4991846;28;20033;-71
2022/10/31 10:34:11;;;;;;;18.13;6.93;;;18.20;99.90;;;;;;4989468;28;20038;-69
2022/10/31 10:36:43;;;;;;;19.25;7.28;;;18.40;99.90;;;;;;4967924;28;20933;-69
2022/10/31 10:39:29;;;;;;;16.92;7.53;;;18.40;99.90;;;;;;4987334;28;20125;-71
2022/10/31 10:47:41;;;;;;;14.73;7.10;;;18.90;99.90;;;;;;4984215;28;20095;-70
2022/10/31 10:50:20;;;;;;;23.33;7.45;;;19.10;99.90;;;;;;4991199;28;20026;-69
2022/10/31 10:53:21;;;;;;;29.92;8.35;;;19.20;99.90;;;;;;4990038;28;20061;-71
2022/10/31 10:56:02;;;;;;;;;;;19.30;99.90;;;;;;4989745;28;20518;-69
2022/10/31 10:58:28;;;;;;;28.13;8.80;;;19.40;99.90;;;;;;4982141;28;20363;-71
2022/10/31 11:00:55;;;;;;;24.20;9.35;;;19.60;99.90;;;;;;4988993;28;20036;-69
2022/10/31 11:03:21;;;;;;;23.00;8.95;;;19.90;99.90;;;;;;4990809;28;20042;-70
2022/10/31 11:05:51;;;;;;;23.17;8.05;;;20.10;99.90;;;;;;4971388;28;20666;-69
2022/10/31 11:08:43;;;;;;;26.13;9.77;;;20.10;99.90;;;;;;4979645;28;20038;-70
2022/10/31 11:11:25;;;;;;;19.25;9.30;;;20.10;99.90;;;;;;4993168;28;20042;-70
2022/10/31 11:13:59;;;;;;;22.95;9.20;;;20.10;99.90;;;;;;4993187;28;20089;-69
2022/10/31 11:16:27;;;;;;;31.00;10.27;;;20.10;99.90;;;;;;4989822;28;20046;-70
2022/10/31 11:19:04;;;;;;;24.15;9.57;;;20.20;99.90;;;;;;4991141;28;20034;-70
2022/10/31 11:21:33;;;;;;;22.33;8.73;;;20.20;99.90;;;;;;4988562;28;20097;-70
2022/10/31 11:24:10;;;;;;;31.27;10.88;;;20.10;99.90;;;;;;4989015;28;20030;-70
2022/10/31 11:26:39;;;;;;;23.38;10.20;;;20.10;99.90;;;;;;4988281;28;20093;-70
2022/10/31 11:29:05;;;;;;;31.30;11.23;;;20.10;99.90;;;;;;4989868;28;20088;-70
2022/10/31 11:31:34;;;;;;;23.52;10.25;;;20.00;99.90;;;;;;4990420;28;20030;-70
2022/10/31 11:34:12;;;;;;;27.58;10.07;;;20.00;99.90;;;;;;4987055;28;20508;-70
2022/10/31 11:36:42;;;;;;;33.25;10.48;;;20.10;99.90;;;;;;4990473;28;20026;-70
2022/10/31 11:39:18;;;;;;;29.45;10.50;;;20.10;99.90;;;;;;4988607;28;20056;-69
2022/10/31 11:41:45;;;;;;;32.22;10.35;;;20.20;99.90;;;;;;4991055;28;20442;-70
2022/10/31 11:44:24;;;;;;;18.73;9.60;;;20.10;99.90;;;;;;4989959;28;20034;-69
2022/10/31 11:46:58;;;;;;;23.20;10.07;;;20.10;99.90;;;;;;4987625;28;20082;-70
2022/10/31 11:49:36;;;;;;;25.13;9.05;;;20.10;99.90;;;;;;4990179;28;20041;-70
2022/10/31 11:52:12;;;;;;;35.10;9.55;;;20.20;99.90;;;;;;4988983;28;20049;-70
2022/10/31 11:54:52;;;;;;;22.55;9.05;;;20.30;99.90;;;;;;4988332;28;20062;-72
2022/10/31 11:57:28;;;;;;;24.42;10.30;;;20.40;99.90;;;;;;4987018;28;20433;-70
2022/10/31 11:59:59;;;;;;;28.05;11.15;;;20.60;99.90;;;;;;4988097;28;20030;-71
2022/10/31 12:02:25;;;;;;;25.88;11.02;;;20.60;99.90;;;;;;4988179;28;20117;-70
2022/10/31 12:05:19;;;;;;;27.05;10.63;;;20.60;99.90;;;;;;4989123;28;20073;-70
2022/10/31 12:07:45;;;;;;;30.20;11.38;;;20.70;99.90;;;;;;5017336;28;20030;-71
2022/10/31 12:10:12;;;;;;;32.60;14.13;;;20.70;99.90;;;;;;4990244;28;20037;-70
2022/10/31 12:13:05;;;;;;;28.13;12.05;;;20.70;99.90;;;;;;4999021;28;20029;-70
2022/10/31 12:15:37;;;;;;;38.10;13.63;;;20.90;99.90;;;;;;4970423;28;20624;-70
2022/10/31 12:18:14;;;;;;;25.23;10.70;;;21.00;99.90;;;;;;4975066;28;20146;-70
2022/10/31 12:21:06;;;;;;;23.02;10.40;;;20.90;99.90;;;;;;4989271;28;20108;-70
2022/10/31 12:23:34;;;;;;;35.00;9.77;;;21.00;99.90;;;;;;4985185;28;20105;-71
2022/10/31 12:26:21;;;;;;;30.77;10.10;;;21.00;99.90;;;;;;4987180;28;20022;-69
2022/10/31 12:29:08;;;;;;;24.63;9.73;;;21.00;99.90;;;;;;4989696;28;20026;-72
2022/10/31 12:31:53;;;;;;;25.63;9.35;;;21.10;99.90;;;;;;4988251;28;20042;-70
2022/10/31 12:34:40;;;;;;;22.70;9.80;;;21.30;99.90;;;;;;4988176;28;20627;-70
2022/10/31 12:37:33;;;;;;;26.20;10.40;;;21.30;99.90;;;;;;4982497;28;20038;-70
2022/10/31 12:40:26;;;;;;;24.58;9.73;;;21.30;99.90;;;;;;4988995;28;20026;-70
2022/10/31 12:43:20;;;;;;;27.58;9.05;;;21.30;99.90;;;;;;4997524;28;20042;-70
2022/10/31 12:46:00;;;;;;;24.52;9.20;;;21.40;99.90;;;;;;4985467;28;20047;-70
2022/10/31 12:48:59;;;;;;;20.40;7.75;;;21.40;99.90;;;;;;4986992;28;20138;-73
2022/10/31 12:51:56;;;;;;;25.27;8.15;;;21.50;99.90;;;;;;4987218;28;20085;-70
2022/10/31 12:54:36;;;;;;;17.90;8.05;;;21.60;99.90;;;;;;4984634;28;20140;-69
2022/10/31 12:57:36;;;;;;;24.77;8.32;;;21.60;99.90;;;;;;4986016;28;20068;-70
2022/10/31 13:00:16;;;;;;;20.73;7.55;;;21.80;99.90;;;;;;4989210;28;20032;-70
2022/10/31 13:02:53;;;;;;;19.92;7.40;;;22.20;99.90;;;;;;4984297;28;20477;-69
2022/10/31 13:05:22;;;;;;;21.23;7.78;;;22.70;99.90;;;;;;4969832;28;20031;-69
2022/10/31 13:08:01;;;;;;;24.80;8.35;;;22.80;99.90;;;;;;4969520;28;20054;-70
2022/10/31 13:10:32;;;;;;;21.17;7.82;;;22.60;99.90;;;;;;4969935;28;20050;-70